sensor_id;sensor_type;location;lat;lon;timestamp;P1;durP1;ratioP1;P2;durP2;ratioP2
12758;SDS011;20944;47.048;15.390;2023-12-20T00:01:46;7.47;;;2.97;;
12758;SDS011;20944;47.048;15.390;2023-12-20T00:04:14;5.27;;;2.70;;
12758;SDS011;20944;47.048;15.390;2023-12-20T00:06:43;6.83;;;3.20;;
12758;SDS011;20944;47.048;15.390;2023-12-20T00:09:12;4.67;;;2.50;;
12758;SDS011;20944;47.048;15.390;2023-12-20T00:11:41;4.57;;;2.43;;
12758;SDS011;20944;47.048;15.390;2023-12-20T00:14:10;5.60;;;2.70;;
12758;SDS011;20944;47.048;15.390;2023-12-20T00:16:40;5.47;;;2.37;;
12758;SDS011;20944;47.048;15.390;2023-12-20T00:19:09;3.40;;;1.93;;
12758;SDS011;20944;47.048;15.390;2023-12-20T00:21:37;7.10;;;2.60;;
12758;SDS011;20944;47.048;15.390;2023-12-20T00:24:06;5.67;;;2.30;;
12758;SDS011;20944;47.048;15.390;2023-12-20T00:26:35;6.13;;;2.63;;
12758;SDS011;20944;47.048;15.390;2023-12-20T00:29:03;6.33;;;2.70;;
12758;SDS011;20944;47.048;15.390;2023-12-20T00:31:32;5.30;;;2.20;;
12758;SDS011;20944;47.048;15.390;2023-12-20T00:34:02;6.77;;;2.60;;
12758;SDS011;20944;47.048;15.390;2023-12-20T00:36:31;8.03;;;2.73;;
12758;SDS011;20944;47.048;15.390;2023-12-20T00:38:59;5.60;;;2.53;;
12758;SDS011;20944;47.048;15.390;2023-12-20T00:41:28;5.77;;;2.87;;
12758;SDS011;20944;47.048;15.390;2023-12-20T00:43:56;3.33;;;2.23;;
12758;SDS011;20944;47.048;15.390;2023-12-20T00:46:25;5.40;;;2.33;;
12758;SDS011;20944;47.048;15.390;2023-12-20T00:48:53;7.00;;;2.53;;
12758;SDS011;20944;47.048;15.390;2023-12-20T00:51:23;7.27;;;2.77;;
12758;SDS011;20944;47.048;15.390;2023-12-20T00:53:52;5.83;;;2.73;;
12758;SDS011;20944;47.048;15.390;2023-12-20T00:56:21;6.90;;;2.37;;
12758;SDS011;20944;47.048;15.390;2023-12-20T00:58:50;4.27;;;2.33;;
12758;SDS011;20944;47.048;15.390;2023-12-20T01:01:19;4.10;;;2.50;;
12758;SDS011;20944;47.048;15.390;2023-12-20T01:03:47;2.90;;;2.13;;
12758;SDS011;20944;47.048;15.390;2023-12-20T01:06:18;4.87;;;2.27;;
12758;SDS011;20944;47.048;15.390;2023-12-20T01:08:48;6.33;;;2.53;;
12758;SDS011;20944;47.048;15.390;2023-12-20T01:11:16;4.23;;;2.10;;
12758;SDS011;20944;47.048;15.390;2023-12-20T01:13:44;6.27;;;2.40;;
12758;SDS011;20944;47.048;15.390;2023-12-20T01:16:13;11.50;;;4.47;;
12758;SDS011;20944;47.048;15.390;2023-12-20T01:18:42;12.53;;;3.70;;
12758;SDS011;20944;47.048;15.390;2023-12-20T01:21:10;7.70;;;3.33;;
12758;SDS011;20944;47.048;15.390;2023-12-20T01:23:39;5.97;;;2.70;;
12758;SDS011;20944;47.048;15.390;2023-12-20T01:26:09;5.90;;;2.80;;
12758;SDS011;20944;47.048;15.390;2023-12-20T01:28:38;6.33;;;2.43;;
12758;SDS011;20944;47.048;15.390;2023-12-20T01:31:06;6.80;;;2.87;;
12758;SDS011;20944;47.048;15.390;2023-12-20T01:33:35;7.37;;;2.47;;
12758;SDS011;20944;47.048;15.390;2023-12-20T01:36:04;6.90;;;2.93;;
12758;SDS011;20944;47.048;15.390;2023-12-20T01:38:33;5.47;;;3.00;;
12758;SDS011;20944;47.048;15.390;2023-12-20T01:41:01;7.40;;;2.77;;
12758;SDS011;20944;47.048;15.390;2023-12-20T01:43:31;5.77;;;3.03;;
12758;SDS011;20944;47.048;15.390;2023-12-20T01:46:15;9.90;;;2.87;;
12758;SDS011;20944;47.048;15.390;2023-12-20T01:48:45;7.33;;;3.30;;
12758;SDS011;20944;47.048;15.390;2023-12-20T01:51:13;5.27;;;2.53;;
12758;SDS011;20944;47.048;15.390;2023-12-20T01:53:42;4.37;;;2.77;;
12758;SDS011;20944;47.048;15.390;2023-12-20T01:56:12;6.93;;;2.80;;
12758;SDS011;20944;47.048;15.390;2023-12-20T01:58:43;5.23;;;3.00;;
12758;SDS011;20944;47.048;15.390;2023-12-20T02:01:12;6.43;;;3.13;;
12758;SDS011;20944;47.048;15.390;2023-12-20T02:03:41;6.53;;;3.40;;
12758;SDS011;20944;47.048;15.390;2023-12-20T02:06:10;6.87;;;3.60;;
12758;SDS011;20944;47.048;15.390;2023-12-20T02:08:39;6.47;;;3.03;;
12758;SDS011;20944;47.048;15.390;2023-12-20T02:11:08;8.80;;;3.80;;
12758;SDS011;20944;47.048;15.390;2023-12-20T02:13:38;9.87;;;3.97;;
12758;SDS011;20944;47.048;15.390;2023-12-20T02:16:07;6.77;;;3.37;;
12758;SDS011;20944;47.048;15.390;2023-12-20T02:18:36;5.33;;;3.37;;
12758;SDS011;20944;47.048;15.390;2023-12-20T02:21:05;9.90;;;3.70;;
12758;SDS011;20944;47.048;15.390;2023-12-20T02:23:35;7.37;;;3.13;;
12758;SDS011;20944;47.048;15.390;2023-12-20T02:26:03;5.80;;;3.17;;
12758;SDS011;20944;47.048;15.390;2023-12-20T02:28:33;7.73;;;3.27;;
12758;SDS011;20944;47.048;15.390;2023-12-20T02:31:03;5.97;;;3.27;;
12758;SDS011;20944;47.048;15.390;2023-12-20T02:33:31;8.67;;;3.13;;
12758;SDS011;20944;47.048;15.390;2023-12-20T02:36:00;6.53;;;3.50;;
12758;SDS011;20944;47.048;15.390;2023-12-20T02:38:28;7.33;;;3.30;;
12758;SDS011;20944;47.048;15.390;2023-12-20T02:40:58;6.50;;;3.33;;
12758;SDS011;20944;47.048;15.390;2023-12-20T02:43:27;7.17;;;3.33;;
12758;SDS011;20944;47.048;15.390;2023-12-20T02:45:55;8.90;;;3.53;;
12758;SDS011;20944;47.048;15.390;2023-12-20T02:48:24;8.37;;;3.63;;
12758;SDS011;20944;47.048;15.390;2023-12-20T02:50:52;7.63;;;3.70;;
12758;SDS011;20944;47.048;15.390;2023-12-20T02:53:21;10.00;;;4.20;;
12758;SDS011;20944;47.048;15.390;2023-12-20T02:55:49;8.20;;;4.13;;
12758;SDS011;20944;47.048;15.390;2023-12-20T02:58:19;11.40;;;4.00;;
12758;SDS011;20944;47.048;15.390;2023-12-20T03:00:48;7.87;;;3.83;;
12758;SDS011;20944;47.048;15.390;2023-12-20T03:03:16;6.63;;;3.70;;
12758;SDS011;20944;47.048;15.390;2023-12-20T03:05:45;6.80;;;4.00;;
12758;SDS011;20944;47.048;15.390;2023-12-20T03:08:14;5.40;;;3.57;;
12758;SDS011;20944;47.048;15.390;2023-12-20T03:10:42;7.93;;;3.70;;
12758;SDS011;20944;47.048;15.390;2023-12-20T03:13:10;9.33;;;4.33;;
12758;SDS011;20944;47.048;15.390;2023-12-20T03:15:40;8.93;;;4.50;;
12758;SDS011;20944;47.048;15.390;2023-12-20T03:18:09;6.13;;;3.77;;
12758;SDS011;20944;47.048;15.390;2023-12-20T03:20:37;9.57;;;4.23;;
12758;SDS011;20944;47.048;15.390;2023-12-20T03:23:07;10.37;;;4.00;;
12758;SDS011;20944;47.048;15.390;2023-12-20T03:25:36;8.53;;;3.57;;
12758;SDS011;20944;47.048;15.390;2023-12-20T03:28:04;9.00;;;4.17;;
12758;SDS011;20944;47.048;15.390;2023-12-20T03:30:33;6.23;;;4.03;;
12758;SDS011;20944;47.048;15.390;2023-12-20T03:33:03;7.87;;;4.17;;
12758;SDS011;20944;47.048;15.390;2023-12-20T03:35:32;6.50;;;3.83;;
12758;SDS011;20944;47.048;15.390;2023-12-20T03:38:00;7.83;;;4.03;;
12758;SDS011;20944;47.048;15.390;2023-12-20T03:40:29;6.67;;;3.77;;
12758;SDS011;20944;47.048;15.390;2023-12-20T03:42:57;7.87;;;3.77;;
12758;SDS011;20944;47.048;15.390;2023-12-20T03:45:26;5.87;;;3.33;;
12758;SDS011;20944;47.048;15.390;2023-12-20T03:47:54;6.83;;;3.00;;
12758;SDS011;20944;47.048;15.390;2023-12-20T03:50:24;6.60;;;3.57;;
12758;SDS011;20944;47.048;15.390;2023-12-20T03:52:53;5.77;;;3.10;;
12758;SDS011;20944;47.048;15.390;2023-12-20T03:55:22;8.23;;;3.63;;
12758;SDS011;20944;47.048;15.390;2023-12-20T03:57:51;5.07;;;3.17;;
12758;SDS011;20944;47.048;15.390;2023-12-20T04:00:19;5.93;;;2.63;;
12758;SDS011;20944;47.048;15.390;2023-12-20T04:02:48;6.27;;;3.47;;
12758;SDS011;20944;47.048;15.390;2023-12-20T04:05:16;6.97;;;3.60;;
12758;SDS011;20944;47.048;15.390;2023-12-20T04:07:46;7.20;;;2.90;;
12758;SDS011;20944;47.048;15.390;2023-12-20T04:10:17;8.80;;;3.30;;
12758;SDS011;20944;47.048;15.390;2023-12-20T04:12:45;9.53;;;3.57;;
12758;SDS011;20944;47.048;15.390;2023-12-20T04:15:14;5.30;;;3.17;;
12758;SDS011;20944;47.048;15.390;2023-12-20T04:17:42;5.33;;;3.30;;
12758;SDS011;20944;47.048;15.390;2023-12-20T04:20:11;6.93;;;3.60;;
12758;SDS011;20944;47.048;15.390;2023-12-20T04:22:40;6.23;;;3.90;;
12758;SDS011;20944;47.048;15.390;2023-12-20T04:25:10;11.43;;;3.93;;
12758;SDS011;20944;47.048;15.390;2023-12-20T04:27:39;10.87;;;3.37;;
12758;SDS011;20944;47.048;15.390;2023-12-20T04:30:07;8.30;;;2.93;;
12758;SDS011;20944;47.048;15.390;2023-12-20T04:32:36;8.40;;;3.63;;
12758;SDS011;20944;47.048;15.390;2023-12-20T04:35:05;7.10;;;3.50;;
12758;SDS011;20944;47.048;15.390;2023-12-20T04:37:35;5.50;;;3.37;;
12758;SDS011;20944;47.048;15.390;2023-12-20T04:40:04;5.40;;;3.37;;
12758;SDS011;20944;47.048;15.390;2023-12-20T04:42:35;6.73;;;2.73;;
12758;SDS011;20944;47.048;15.390;2023-12-20T04:45:04;10.93;;;3.43;;
12758;SDS011;20944;47.048;15.390;2023-12-20T04:47:33;6.43;;;3.30;;
12758;SDS011;20944;47.048;15.390;2023-12-20T04:50:01;5.03;;;3.13;;
12758;SDS011;20944;47.048;15.390;2023-12-20T04:52:31;5.77;;;3.40;;
12758;SDS011;20944;47.048;15.390;2023-12-20T04:54:59;8.13;;;3.83;;
12758;SDS011;20944;47.048;15.390;2023-12-20T04:57:28;7.87;;;3.10;;
12758;SDS011;20944;47.048;15.390;2023-12-20T04:59:58;5.93;;;2.77;;
12758;SDS011;20944;47.048;15.390;2023-12-20T05:02:26;7.30;;;3.10;;
12758;SDS011;20944;47.048;15.390;2023-12-20T05:04:54;5.67;;;3.40;;
12758;SDS011;20944;47.048;15.390;2023-12-20T05:07:23;9.27;;;4.23;;
12758;SDS011;20944;47.048;15.390;2023-12-20T05:09:51;7.07;;;3.87;;
12758;SDS011;20944;47.048;15.390;2023-12-20T05:12:20;5.40;;;3.07;;
12758;SDS011;20944;47.048;15.390;2023-12-20T05:14:48;7.67;;;3.97;;
12758;SDS011;20944;47.048;15.390;2023-12-20T05:17:18;6.83;;;3.90;;
12758;SDS011;20944;47.048;15.390;2023-12-20T05:19:47;7.23;;;3.87;;
12758;SDS011;20944;47.048;15.390;2023-12-20T05:22:15;8.03;;;3.77;;
12758;SDS011;20944;47.048;15.390;2023-12-20T05:24:44;6.60;;;3.70;;
12758;SDS011;20944;47.048;15.390;2023-12-20T05:27:12;14.13;;;5.20;;
12758;SDS011;20944;47.048;15.390;2023-12-20T05:29:40;8.07;;;4.03;;
12758;SDS011;20944;47.048;15.390;2023-12-20T05:32:09;10.83;;;4.30;;
12758;SDS011;20944;47.048;15.390;2023-12-20T05:34:39;7.40;;;4.50;;
12758;SDS011;20944;47.048;15.390;2023-12-20T05:37:08;8.17;;;4.17;;
12758;SDS011;20944;47.048;15.390;2023-12-20T05:39:36;7.40;;;3.60;;
12758;SDS011;20944;47.048;15.390;2023-12-20T05:42:04;8.07;;;3.90;;
12758;SDS011;20944;47.048;15.390;2023-12-20T05:44:33;7.93;;;3.77;;
12758;SDS011;20944;47.048;15.390;2023-12-20T05:47:02;5.60;;;3.80;;
12758;SDS011;20944;47.048;15.390;2023-12-20T05:49:30;7.55;;;3.70;;
12758;SDS011;20944;47.048;15.390;2023-12-20T05:52:00;9.00;;;4.07;;
12758;SDS011;20944;47.048;15.390;2023-12-20T05:54:29;13.37;;;4.67;;
12758;SDS011;20944;47.048;15.390;2023-12-20T05:56:58;11.47;;;4.43;;
12758;SDS011;20944;47.048;15.390;2023-12-20T05:59:27;13.50;;;4.30;;
12758;SDS011;20944;47.048;15.390;2023-12-20T06:01:55;13.30;;;4.50;;
12758;SDS011;20944;47.048;15.390;2023-12-20T06:04:24;8.03;;;4.17;;
12758;SDS011;20944;47.048;15.390;2023-12-20T06:06:52;9.37;;;4.20;;
12758;SDS011;20944;47.048;15.390;2023-12-20T06:09:22;8.80;;;4.60;;
12758;SDS011;20944;47.048;15.390;2023-12-20T06:11:51;7.07;;;3.57;;
12758;SDS011;20944;47.048;15.390;2023-12-20T06:14:19;7.60;;;3.75;;
12758;SDS011;20944;47.048;15.390;2023-12-20T06:16:48;8.70;;;4.00;;
12758;SDS011;20944;47.048;15.390;2023-12-20T06:19:16;8.30;;;5.30;;
12758;SDS011;20944;47.048;15.390;2023-12-20T06:21:45;12.47;;;4.73;;
12758;SDS011;20944;47.048;15.390;2023-12-20T06:24:13;9.50;;;3.80;;
12758;SDS011;20944;47.048;15.390;2023-12-20T06:26:43;10.53;;;3.30;;
12758;SDS011;20944;47.048;15.390;2023-12-20T06:29:11;7.65;;;3.10;;
12758;SDS011;20944;47.048;15.390;2023-12-20T06:31:40;6.70;;;3.10;;
12758;SDS011;20944;47.048;15.390;2023-12-20T06:34:08;10.57;;;3.30;;
12758;SDS011;20944;47.048;15.390;2023-12-20T06:36:37;3.43;;;2.80;;
12758;SDS011;20944;47.048;15.390;2023-12-20T06:39:05;6.63;;;3.50;;
12758;SDS011;20944;47.048;15.390;2023-12-20T06:41:36;6.60;;;3.50;;
12758;SDS011;20944;47.048;15.390;2023-12-20T06:44:06;6.23;;;3.13;;
12758;SDS011;20944;47.048;15.390;2023-12-20T06:46:34;4.70;;;3.33;;
12758;SDS011;20944;47.048;15.390;2023-12-20T06:49:03;8.43;;;3.57;;
12758;SDS011;20944;47.048;15.390;2023-12-20T06:51:31;5.60;;;3.27;;
12758;SDS011;20944;47.048;15.390;2023-12-20T06:54:00;8.67;;;4.23;;
12758;SDS011;20944;47.048;15.390;2023-12-20T06:56:29;8.07;;;4.17;;
12758;SDS011;20944;47.048;15.390;2023-12-20T06:58:57;7.57;;;4.00;;
12758;SDS011;20944;47.048;15.390;2023-12-20T07:01:27;5.87;;;3.50;;
12758;SDS011;20944;47.048;15.390;2023-12-20T07:03:56;6.43;;;2.83;;
12758;SDS011;20944;47.048;15.390;2023-12-20T07:06:24;5.37;;;3.17;;
12758;SDS011;20944;47.048;15.390;2023-12-20T07:08:53;7.57;;;3.43;;
12758;SDS011;20944;47.048;15.390;2023-12-20T07:11:21;4.70;;;3.07;;
12758;SDS011;20944;47.048;15.390;2023-12-20T07:13:49;8.03;;;3.20;;
12758;SDS011;20944;47.048;15.390;2023-12-20T07:16:18;4.70;;;2.53;;
12758;SDS011;20944;47.048;15.390;2023-12-20T07:18:48;7.93;;;3.37;;
12758;SDS011;20944;47.048;15.390;2023-12-20T07:21:16;5.27;;;3.03;;
12758;SDS011;20944;47.048;15.390;2023-12-20T07:23:45;6.70;;;3.20;;
12758;SDS011;20944;47.048;15.390;2023-12-20T07:26:13;7.13;;;3.60;;
12758;SDS011;20944;47.048;15.390;2023-12-20T07:28:42;4.93;;;3.33;;
12758;SDS011;20944;47.048;15.390;2023-12-20T07:31:10;4.57;;;2.60;;
12758;SDS011;20944;47.048;15.390;2023-12-20T07:33:39;6.50;;;3.13;;
12758;SDS011;20944;47.048;15.390;2023-12-20T07:36:09;9.27;;;3.20;;
12758;SDS011;20944;47.048;15.390;2023-12-20T07:38:38;6.10;;;2.40;;
12758;SDS011;20944;47.048;15.390;2023-12-20T07:41:09;5.97;;;3.10;;
12758;SDS011;20944;47.048;15.390;2023-12-20T07:43:37;3.87;;;2.70;;
12758;SDS011;20944;47.048;15.390;2023-12-20T07:46:06;10.37;;;4.07;;
12758;SDS011;20944;47.048;15.390;2023-12-20T07:48:35;8.30;;;4.07;;
12758;SDS011;20944;47.048;15.390;2023-12-20T07:51:03;6.10;;;3.30;;
12758;SDS011;20944;47.048;15.390;2023-12-20T07:53:34;5.67;;;3.60;;
12758;SDS011;20944;47.048;15.390;2023-12-20T07:56:03;6.27;;;3.33;;
12758;SDS011;20944;47.048;15.390;2023-12-20T07:58:41;6.97;;;4.23;;
12758;SDS011;20944;47.048;15.390;2023-12-20T08:01:19;7.60;;;4.20;;
12758;SDS011;20944;47.048;15.390;2023-12-20T08:03:48;9.07;;;4.17;;
12758;SDS011;20944;47.048;15.390;2023-12-20T08:06:18;9.20;;;4.60;;
12758;SDS011;20944;47.048;15.390;2023-12-20T08:08:48;9.47;;;4.37;;
12758;SDS011;20944;47.048;15.390;2023-12-20T08:11:27;6.77;;;3.73;;
12758;SDS011;20944;47.048;15.390;2023-12-20T08:13:56;9.17;;;3.43;;
12758;SDS011;20944;47.048;15.390;2023-12-20T08:16:25;10.73;;;4.20;;
12758;SDS011;20944;47.048;15.390;2023-12-20T08:18:53;9.90;;;3.40;;
12758;SDS011;20944;47.048;15.390;2023-12-20T08:21:22;6.60;;;3.73;;
12758;SDS011;20944;47.048;15.390;2023-12-20T08:23:52;8.00;;;3.40;;
12758;SDS011;20944;47.048;15.390;2023-12-20T08:26:20;5.27;;;3.70;;
12758;SDS011;20944;47.048;15.390;2023-12-20T08:28:50;10.93;;;4.07;;
12758;SDS011;20944;47.048;15.390;2023-12-20T08:31:19;9.20;;;3.60;;
12758;SDS011;20944;47.048;15.390;2023-12-20T08:33:48;9.07;;;4.43;;
12758;SDS011;20944;47.048;15.390;2023-12-20T08:36:17;10.23;;;3.93;;
12758;SDS011;20944;47.048;15.390;2023-12-20T08:38:48;9.63;;;5.13;;
12758;SDS011;20944;47.048;15.390;2023-12-20T08:41:18;8.83;;;3.83;;
12758;SDS011;20944;47.048;15.390;2023-12-20T08:43:47;10.53;;;3.80;;
12758;SDS011;20944;47.048;15.390;2023-12-20T08:46:15;8.40;;;3.60;;
12758;SDS011;20944;47.048;15.390;2023-12-20T08:48:44;6.30;;;4.17;;
12758;SDS011;20944;47.048;15.390;2023-12-20T08:51:13;9.90;;;4.47;;
12758;SDS011;20944;47.048;15.390;2023-12-20T08:53:41;7.97;;;4.20;;
12758;SDS011;20944;47.048;15.390;2023-12-20T08:56:12;6.77;;;4.20;;
12758;SDS011;20944;47.048;15.390;2023-12-20T08:58:41;8.43;;;5.00;;
12758;SDS011;20944;47.048;15.390;2023-12-20T09:01:10;9.27;;;4.77;;
12758;SDS011;20944;47.048;15.390;2023-12-20T09:03:39;10.10;;;4.60;;
12758;SDS011;20944;47.048;15.390;2023-12-20T09:06:07;12.60;;;4.73;;
12758;SDS011;20944;47.048;15.390;2023-12-20T09:08:36;11.07;;;4.73;;
12758;SDS011;20944;47.048;15.390;2023-12-20T09:11:04;13.83;;;7.50;;
12758;SDS011;20944;47.048;15.390;2023-12-20T09:13:33;14.23;;;6.93;;
12758;SDS011;20944;47.048;15.390;2023-12-20T09:16:04;17.57;;;8.30;;
12758;SDS011;20944;47.048;15.390;2023-12-20T09:18:33;15.13;;;8.67;;
12758;SDS011;20944;47.048;15.390;2023-12-20T09:21:01;14.17;;;8.43;;
12758;SDS011;20944;47.048;15.390;2023-12-20T09:23:30;16.43;;;9.27;;
12758;SDS011;20944;47.048;15.390;2023-12-20T09:25:58;15.83;;;9.47;;
12758;SDS011;20944;47.048;15.390;2023-12-20T09:28:26;14.80;;;8.10;;
12758;SDS011;20944;47.048;15.390;2023-12-20T09:30:55;23.73;;;10.00;;
12758;SDS011;20944;47.048;15.390;2023-12-20T09:33:25;21.47;;;9.63;;
12758;SDS011;20944;47.048;15.390;2023-12-20T09:35:54;16.50;;;9.27;;
12758;SDS011;20944;47.048;15.390;2023-12-20T09:38:22;17.47;;;9.27;;
12758;SDS011;20944;47.048;15.390;2023-12-20T09:40:51;13.70;;;8.97;;
12758;SDS011;20944;47.048;15.390;2023-12-20T09:43:20;16.40;;;9.37;;
12758;SDS011;20944;47.048;15.390;2023-12-20T09:45:53;20.40;;;9.77;;
12758;SDS011;20944;47.048;15.390;2023-12-20T09:48:21;16.67;;;9.10;;
12758;SDS011;20944;47.048;15.390;2023-12-20T09:50:52;12.53;;;8.23;;
12758;SDS011;20944;47.048;15.390;2023-12-20T09:53:21;16.80;;;9.20;;
12758;SDS011;20944;47.048;15.390;2023-12-20T09:55:56;20.40;;;9.97;;
12758;SDS011;20944;47.048;15.390;2023-12-20T09:58:27;14.97;;;9.90;;
12758;SDS011;20944;47.048;15.390;2023-12-20T10:00:56;18.40;;;9.73;;
12758;SDS011;20944;47.048;15.390;2023-12-20T10:03:25;20.40;;;9.90;;
12758;SDS011;20944;47.048;15.390;2023-12-20T10:05:56;24.47;;;10.23;;
12758;SDS011;20944;47.048;15.390;2023-12-20T10:08:25;17.30;;;10.90;;
12758;SDS011;20944;47.048;15.390;2023-12-20T10:10:54;19.43;;;11.03;;
12758;SDS011;20944;47.048;15.390;2023-12-20T10:13:24;19.30;;;10.10;;
12758;SDS011;20944;47.048;15.390;2023-12-20T10:15:54;18.67;;;10.17;;
12758;SDS011;20944;47.048;15.390;2023-12-20T10:18:24;18.77;;;9.43;;
12758;SDS011;20944;47.048;15.390;2023-12-20T10:21:06;20.10;;;9.87;;
12758;SDS011;20944;47.048;15.390;2023-12-20T10:23:37;21.63;;;9.43;;
12758;SDS011;20944;47.048;15.390;2023-12-20T10:26:06;21.93;;;9.27;;
12758;SDS011;20944;47.048;15.390;2023-12-20T10:28:36;18.73;;;9.10;;
12758;SDS011;20944;47.048;15.390;2023-12-20T10:31:05;19.07;;;9.67;;
12758;SDS011;20944;47.048;15.390;2023-12-20T10:33:34;18.47;;;10.30;;
12758;SDS011;20944;47.048;15.390;2023-12-20T10:36:02;22.70;;;10.90;;
12758;SDS011;20944;47.048;15.390;2023-12-20T10:38:33;19.90;;;10.23;;
12758;SDS011;20944;47.048;15.390;2023-12-20T10:41:05;18.73;;;10.30;;
12758;SDS011;20944;47.048;15.390;2023-12-20T10:43:35;22.20;;;10.77;;
12758;SDS011;20944;47.048;15.390;2023-12-20T10:46:04;22.03;;;10.23;;
12758;SDS011;20944;47.048;15.390;2023-12-20T10:48:33;19.07;;;9.97;;
12758;SDS011;20944;47.048;15.390;2023-12-20T10:51:03;16.90;;;8.97;;
12758;SDS011;20944;47.048;15.390;2023-12-20T10:53:34;12.83;;;7.60;;
12758;SDS011;20944;47.048;15.390;2023-12-20T10:56:04;16.80;;;7.03;;
12758;SDS011;20944;47.048;15.390;2023-12-20T10:58:36;12.90;;;7.27;;
12758;SDS011;20944;47.048;15.390;2023-12-20T11:01:09;21.37;;;8.93;;
12758;SDS011;20944;47.048;15.390;2023-12-20T11:03:42;13.63;;;7.47;;
12758;SDS011;20944;47.048;15.390;2023-12-20T11:06:18;19.17;;;8.93;;
12758;SDS011;20944;47.048;15.390;2023-12-20T11:08:58;14.33;;;8.00;;
12758;SDS011;20944;47.048;15.390;2023-12-20T11:11:38;15.87;;;7.43;;
12758;SDS011;20944;47.048;15.390;2023-12-20T11:14:15;14.73;;;8.83;;
12758;SDS011;20944;47.048;15.390;2023-12-20T11:16:47;13.93;;;7.53;;
12758;SDS011;20944;47.048;15.390;2023-12-20T11:19:21;18.87;;;8.70;;
12758;SDS011;20944;47.048;15.390;2023-12-20T11:21:49;14.73;;;8.73;;
12758;SDS011;20944;47.048;15.390;2023-12-20T11:24:22;16.97;;;7.93;;
12758;SDS011;20944;47.048;15.390;2023-12-20T11:26:55;16.63;;;8.57;;
12758;SDS011;20944;47.048;15.390;2023-12-20T11:29:30;14.53;;;8.37;;
12758;SDS011;20944;47.048;15.390;2023-12-20T11:32:01;12.63;;;8.13;;
12758;SDS011;20944;47.048;15.390;2023-12-20T11:34:33;21.40;;;10.47;;
12758;SDS011;20944;47.048;15.390;2023-12-20T11:37:04;15.17;;;9.60;;
12758;SDS011;20944;47.048;15.390;2023-12-20T11:39:36;17.43;;;8.33;;
12758;SDS011;20944;47.048;15.390;2023-12-20T11:42:05;14.77;;;8.40;;
12758;SDS011;20944;47.048;15.390;2023-12-20T11:44:34;14.30;;;8.33;;
12758;SDS011;20944;47.048;15.390;2023-12-20T11:47:04;22.30;;;9.40;;
12758;SDS011;20944;47.048;15.390;2023-12-20T11:49:33;14.53;;;8.83;;
12758;SDS011;20944;47.048;15.390;2023-12-20T11:52:01;16.90;;;8.43;;
12758;SDS011;20944;47.048;15.390;2023-12-20T11:54:31;16.30;;;8.60;;
12758;SDS011;20944;47.048;15.390;2023-12-20T11:57:00;16.90;;;9.20;;
12758;SDS011;20944;47.048;15.390;2023-12-20T11:59:29;17.40;;;8.70;;
12758;SDS011;20944;47.048;15.390;2023-12-20T12:01:59;16.50;;;8.93;;
12758;SDS011;20944;47.048;15.390;2023-12-20T12:04:28;14.00;;;9.40;;
12758;SDS011;20944;47.048;15.390;2023-12-20T12:06:57;21.00;;;9.60;;
12758;SDS011;20944;47.048;15.390;2023-12-20T12:09:25;15.47;;;9.63;;
12758;SDS011;20944;47.048;15.390;2023-12-20T12:11:54;12.30;;;7.93;;
12758;SDS011;20944;47.048;15.390;2023-12-20T12:14:24;17.10;;;8.10;;
12758;SDS011;20944;47.048;15.390;2023-12-20T12:16:52;14.30;;;7.40;;
12758;SDS011;20944;47.048;15.390;2023-12-20T12:19:21;15.07;;;7.40;;
12758;SDS011;20944;47.048;15.390;2023-12-20T12:21:50;13.03;;;8.07;;
12758;SDS011;20944;47.048;15.390;2023-12-20T12:24:20;13.43;;;7.70;;
12758;SDS011;20944;47.048;15.390;2023-12-20T12:26:52;15.23;;;7.27;;
12758;SDS011;20944;47.048;15.390;2023-12-20T12:29:20;16.00;;;8.30;;
12758;SDS011;20944;47.048;15.390;2023-12-20T12:31:50;12.63;;;7.40;;
12758;SDS011;20944;47.048;15.390;2023-12-20T12:34:19;13.30;;;7.50;;
12758;SDS011;20944;47.048;15.390;2023-12-20T12:36:48;14.20;;;7.97;;
12758;SDS011;20944;47.048;15.390;2023-12-20T12:39:17;13.23;;;7.47;;
12758;SDS011;20944;47.048;15.390;2023-12-20T12:41:46;15.50;;;8.47;;
12758;SDS011;20944;47.048;15.390;2023-12-20T12:44:14;19.33;;;7.97;;
12758;SDS011;20944;47.048;15.390;2023-12-20T12:46:44;18.23;;;8.43;;
12758;SDS011;20944;47.048;15.390;2023-12-20T12:49:15;14.07;;;7.70;;
12758;SDS011;20944;47.048;15.390;2023-12-20T12:51:43;13.60;;;7.97;;
12758;SDS011;20944;47.048;15.390;2023-12-20T12:54:12;13.53;;;8.27;;
12758;SDS011;20944;47.048;15.390;2023-12-20T12:56:42;16.20;;;7.67;;
12758;SDS011;20944;47.048;15.390;2023-12-20T12:59:11;16.50;;;7.90;;
12758;SDS011;20944;47.048;15.390;2023-12-20T13:01:39;16.70;;;8.07;;
12758;SDS011;20944;47.048;15.390;2023-12-20T13:04:08;12.57;;;7.83;;
12758;SDS011;20944;47.048;15.390;2023-12-20T13:06:39;15.93;;;7.07;;
12758;SDS011;20944;47.048;15.390;2023-12-20T13:09:08;18.10;;;7.80;;
12758;SDS011;20944;47.048;15.390;2023-12-20T13:11:37;15.70;;;7.63;;
12758;SDS011;20944;47.048;15.390;2023-12-20T13:14:06;14.63;;;8.90;;
12758;SDS011;20944;47.048;15.390;2023-12-20T13:16:37;15.03;;;8.53;;
12758;SDS011;20944;47.048;15.390;2023-12-20T13:19:05;18.30;;;9.77;;
12758;SDS011;20944;47.048;15.390;2023-12-20T13:21:34;18.53;;;8.30;;
12758;SDS011;20944;47.048;15.390;2023-12-20T13:24:04;19.97;;;9.67;;
12758;SDS011;20944;47.048;15.390;2023-12-20T13:26:33;25.20;;;9.83;;
12758;SDS011;20944;47.048;15.390;2023-12-20T13:29:02;16.63;;;8.17;;
12758;SDS011;20944;47.048;15.390;2023-12-20T13:31:31;17.90;;;10.10;;
12758;SDS011;20944;47.048;15.390;2023-12-20T13:34:00;16.23;;;9.30;;
12758;SDS011;20944;47.048;15.390;2023-12-20T13:36:28;20.77;;;9.47;;
12758;SDS011;20944;47.048;15.390;2023-12-20T13:38:57;13.63;;;8.53;;
12758;SDS011;20944;47.048;15.390;2023-12-20T13:41:27;16.53;;;8.87;;
12758;SDS011;20944;47.048;15.390;2023-12-20T13:43:55;18.27;;;8.87;;
12758;SDS011;20944;47.048;15.390;2023-12-20T13:46:23;21.47;;;9.57;;
12758;SDS011;20944;47.048;15.390;2023-12-20T13:48:52;17.43;;;10.40;;
12758;SDS011;20944;47.048;15.390;2023-12-20T13:51:21;17.53;;;9.30;;
12758;SDS011;20944;47.048;15.390;2023-12-20T13:53:49;16.90;;;9.43;;
12758;SDS011;20944;47.048;15.390;2023-12-20T13:56:17;20.00;;;9.60;;
12758;SDS011;20944;47.048;15.390;2023-12-20T13:58:48;14.60;;;8.77;;
12758;SDS011;20944;47.048;15.390;2023-12-20T14:01:17;20.30;;;9.23;;
12758;SDS011;20944;47.048;15.390;2023-12-20T14:03:46;16.07;;;9.03;;
12758;SDS011;20944;47.048;15.390;2023-12-20T14:06:14;19.27;;;9.30;;
12758;SDS011;20944;47.048;15.390;2023-12-20T14:08:43;14.87;;;8.17;;
12758;SDS011;20944;47.048;15.390;2023-12-20T14:11:11;18.27;;;9.70;;
12758;SDS011;20944;47.048;15.390;2023-12-20T14:13:42;20.13;;;9.93;;
12758;SDS011;20944;47.048;15.390;2023-12-20T14:16:12;17.00;;;9.27;;
12758;SDS011;20944;47.048;15.390;2023-12-20T14:18:41;18.07;;;10.00;;
12758;SDS011;20944;47.048;15.390;2023-12-20T14:21:09;21.10;;;10.70;;
12758;SDS011;20944;47.048;15.390;2023-12-20T14:23:38;23.30;;;11.10;;
12758;SDS011;20944;47.048;15.390;2023-12-20T14:26:09;24.00;;;10.13;;
12758;SDS011;20944;47.048;15.390;2023-12-20T14:28:41;23.03;;;10.77;;
12758;SDS011;20944;47.048;15.390;2023-12-20T14:31:09;19.60;;;10.93;;
12758;SDS011;20944;47.048;15.390;2023-12-20T14:33:40;18.23;;;10.77;;
12758;SDS011;20944;47.048;15.390;2023-12-20T14:36:09;16.93;;;9.37;;
12758;SDS011;20944;47.048;15.390;2023-12-20T14:38:36;19.23;;;10.33;;
12758;SDS011;20944;47.048;15.390;2023-12-20T14:41:06;16.97;;;10.40;;